sensor_id;sensor_type;location;lat;lon;timestamp;P1;durP1;ratioP1;P2;durP2;ratioP2
10659;SDS011;5378;53.206;13.316;2024-03-07T00:02:17;40.70;;;14.90;;
10659;SDS011;5378;53.206;13.316;2024-03-07T00:05:05;42.57;;;13.43;;
10659;SDS011;5378;53.206;13.316;2024-03-07T00:07:53;41.30;;;13.93;;
10659;SDS011;5378;53.206;13.316;2024-03-07T00:10:40;38.93;;;14.83;;
10659;SDS011;5378;53.206;13.316;2024-03-07T00:13:29;39.10;;;15.50;;
10659;SDS011;5378;53.206;13.316;2024-03-07T00:16:16;34.73;;;13.10;;
10659;SDS011;5378;53.206;13.316;2024-03-07T00:19:03;36.40;;;15.30;;
10659;SDS011;5378;53.206;13.316;2024-03-07T00:21:52;36.80;;;14.10;;
10659;SDS011;5378;53.206;13.316;2024-03-07T00:24:39;38.73;;;14.53;;
10659;SDS011;5378;53.206;13.316;2024-03-07T00:27:26;24.57;;;12.13;;
10659;SDS011;5378;53.206;13.316;2024-03-07T00:30:14;37.93;;;13.03;;
10659;SDS011;5378;53.206;13.316;2024-03-07T00:33:04;37.80;;;14.80;;
10659;SDS011;5378;53.206;13.316;2024-03-07T00:35:51;33.90;;;14.00;;
10659;SDS011;5378;53.206;13.316;2024-03-07T00:38:39;43.17;;;14.30;;
10659;SDS011;5378;53.206;13.316;2024-03-07T00:41:27;41.97;;;13.90;;
10659;SDS011;5378;53.206;13.316;2024-03-07T00:44:15;43.20;;;14.13;;
10659;SDS011;5378;53.206;13.316;2024-03-07T00:47:02;48.07;;;15.63;;
10659;SDS011;5378;53.206;13.316;2024-03-07T00:49:50;37.50;;;12.87;;
10659;SDS011;5378;53.206;13.316;2024-03-07T00:52:38;50.67;;;14.83;;
10659;SDS011;5378;53.206;13.316;2024-03-07T00:55:26;35.83;;;12.83;;
10659;SDS011;5378;53.206;13.316;2024-03-07T00:58:14;37.33;;;13.17;;
10659;SDS011;5378;53.206;13.316;2024-03-07T01:01:02;36.63;;;13.60;;
10659;SDS011;5378;53.206;13.316;2024-03-07T01:03:49;37.03;;;12.20;;
10659;SDS011;5378;53.206;13.316;2024-03-07T01:06:37;44.33;;;15.50;;
10659;SDS011;5378;53.206;13.316;2024-03-07T01:09:26;36.53;;;14.33;;
10659;SDS011;5378;53.206;13.316;2024-03-07T01:12:15;43.77;;;14.60;;
10659;SDS011;5378;53.206;13.316;2024-03-07T01:15:03;38.17;;;14.33;;
10659;SDS011;5378;53.206;13.316;2024-03-07T01:17:51;40.30;;;12.33;;
10659;SDS011;5378;53.206;13.316;2024-03-07T01:20:38;40.70;;;13.33;;
10659;SDS011;5378;53.206;13.316;2024-03-07T01:23:25;31.80;;;12.93;;
10659;SDS011;5378;53.206;13.316;2024-03-07T01:26:13;41.47;;;12.83;;
10659;SDS011;5378;53.206;13.316;2024-03-07T01:29:02;26.53;;;11.80;;
10659;SDS011;5378;53.206;13.316;2024-03-07T01:31:50;40.67;;;14.43;;
10659;SDS011;5378;53.206;13.316;2024-03-07T01:34:37;33.67;;;14.00;;
10659;SDS011;5378;53.206;13.316;2024-03-07T01:37:24;25.10;;;11.93;;
10659;SDS011;5378;53.206;13.316;2024-03-07T01:40:12;38.37;;;12.27;;
10659;SDS011;5378;53.206;13.316;2024-03-07T01:43:00;28.57;;;11.93;;
10659;SDS011;5378;53.206;13.316;2024-03-07T01:45:49;34.30;;;11.33;;
10659;SDS011;5378;53.206;13.316;2024-03-07T01:48:40;30.73;;;10.57;;
10659;SDS011;5378;53.206;13.316;2024-03-07T01:51:27;35.37;;;11.87;;
10659;SDS011;5378;53.206;13.316;2024-03-07T01:54:15;35.73;;;11.67;;
10659;SDS011;5378;53.206;13.316;2024-03-07T01:57:02;30.93;;;11.60;;
10659;SDS011;5378;53.206;13.316;2024-03-07T01:59:51;26.70;;;11.87;;
10659;SDS011;5378;53.206;13.316;2024-03-07T02:02:40;32.20;;;11.27;;
10659;SDS011;5378;53.206;13.316;2024-03-07T02:05:28;29.43;;;11.17;;
10659;SDS011;5378;53.206;13.316;2024-03-07T02:08:15;28.40;;;10.97;;
10659;SDS011;5378;53.206;13.316;2024-03-07T02:11:02;35.03;;;12.10;;
10659;SDS011;5378;53.206;13.316;2024-03-07T02:13:50;40.30;;;12.00;;
10659;SDS011;5378;53.206;13.316;2024-03-07T02:16:37;28.13;;;12.80;;
10659;SDS011;5378;53.206;13.316;2024-03-07T02:19:26;25.47;;;10.77;;
10659;SDS011;5378;53.206;13.316;2024-03-07T02:22:14;32.67;;;11.17;;
10659;SDS011;5378;53.206;13.316;2024-03-07T02:25:01;25.33;;;9.23;;
10659;SDS011;5378;53.206;13.316;2024-03-07T02:27:48;33.00;;;10.77;;
10659;SDS011;5378;53.206;13.316;2024-03-07T02:30:35;28.33;;;11.47;;
10659;SDS011;5378;53.206;13.316;2024-03-07T02:33:22;25.57;;;9.90;;
10659;SDS011;5378;53.206;13.316;2024-03-07T02:36:10;33.53;;;9.77;;
10659;SDS011;5378;53.206;13.316;2024-03-07T02:38:58;27.87;;;11.40;;
10659;SDS011;5378;53.206;13.316;2024-03-07T02:41:46;28.10;;;12.07;;
10659;SDS011;5378;53.206;13.316;2024-03-07T02:44:35;22.17;;;9.53;;
10659;SDS011;5378;53.206;13.316;2024-03-07T02:47:24;27.20;;;12.30;;
10659;SDS011;5378;53.206;13.316;2024-03-07T02:50:11;22.20;;;9.20;;
10659;SDS011;5378;53.206;13.316;2024-03-07T02:52:58;37.03;;;12.60;;
10659;SDS011;5378;53.206;13.316;2024-03-07T02:55:46;32.73;;;11.83;;
10659;SDS011;5378;53.206;13.316;2024-03-07T02:58:35;27.97;;;11.00;;
10659;SDS011;5378;53.206;13.316;2024-03-07T03:01:23;25.97;;;11.00;;
10659;SDS011;5378;53.206;13.316;2024-03-07T03:04:09;30.93;;;11.43;;
10659;SDS011;5378;53.206;13.316;2024-03-07T03:06:57;29.37;;;12.37;;
10659;SDS011;5378;53.206;13.316;2024-03-07T03:09:43;30.37;;;11.13;;
10659;SDS011;5378;53.206;13.316;2024-03-07T03:12:32;35.27;;;11.97;;
10659;SDS011;5378;53.206;13.316;2024-03-07T03:15:19;26.57;;;10.57;;
10659;SDS011;5378;53.206;13.316;2024-03-07T03:18:06;38.00;;;11.20;;
10659;SDS011;5378;53.206;13.316;2024-03-07T03:20:55;45.70;;;13.17;;
10659;SDS011;5378;53.206;13.316;2024-03-07T03:23:43;27.63;;;11.60;;
10659;SDS011;5378;53.206;13.316;2024-03-07T03:26:30;29.37;;;13.67;;
10659;SDS011;5378;53.206;13.316;2024-03-07T03:29:19;32.73;;;11.97;;
10659;SDS011;5378;53.206;13.316;2024-03-07T03:32:06;33.70;;;11.33;;
10659;SDS011;5378;53.206;13.316;2024-03-07T03:34:54;33.40;;;13.00;;
10659;SDS011;5378;53.206;13.316;2024-03-07T03:37:41;34.60;;;13.23;;
10659;SDS011;5378;53.206;13.316;2024-03-07T03:40:29;41.60;;;14.23;;
10659;SDS011;5378;53.206;13.316;2024-03-07T03:43:17;41.53;;;12.80;;
10659;SDS011;5378;53.206;13.316;2024-03-07T03:46:06;28.77;;;11.60;;
10659;SDS011;5378;53.206;13.316;2024-03-07T03:48:57;49.23;;;11.77;;
10659;SDS011;5378;53.206;13.316;2024-03-07T03:51:44;39.63;;;13.00;;
10659;SDS011;5378;53.206;13.316;2024-03-07T03:54:32;36.20;;;13.80;;
10659;SDS011;5378;53.206;13.316;2024-03-07T03:57:19;42.23;;;13.37;;
10659;SDS011;5378;53.206;13.316;2024-03-07T04:00:07;48.57;;;14.13;;
10659;SDS011;5378;53.206;13.316;2024-03-07T04:02:59;50.97;;;15.40;;
10659;SDS011;5378;53.206;13.316;2024-03-07T04:05:46;54.90;;;15.20;;
10659;SDS011;5378;53.206;13.316;2024-03-07T04:08:33;54.63;;;15.00;;
10659;SDS011;5378;53.206;13.316;2024-03-07T04:11:22;46.13;;;15.13;;
10659;SDS011;5378;53.206;13.316;2024-03-07T04:14:09;42.97;;;14.00;;
10659;SDS011;5378;53.206;13.316;2024-03-07T04:16:56;36.97;;;14.63;;
10659;SDS011;5378;53.206;13.316;2024-03-07T04:19:45;50.07;;;15.47;;
10659;SDS011;5378;53.206;13.316;2024-03-07T04:22:32;62.57;;;16.73;;
10659;SDS011;5378;53.206;13.316;2024-03-07T04:25:20;48.37;;;16.80;;
10659;SDS011;5378;53.206;13.316;2024-03-07T04:28:08;51.73;;;16.23;;
10659;SDS011;5378;53.206;13.316;2024-03-07T04:30:55;57.20;;;17.27;;
10659;SDS011;5378;53.206;13.316;2024-03-07T04:33:42;55.97;;;18.20;;
10659;SDS011;5378;53.206;13.316;2024-03-07T04:36:32;51.60;;;17.50;;
10659;SDS011;5378;53.206;13.316;2024-03-07T04:39:20;62.07;;;19.53;;
10659;SDS011;5378;53.206;13.316;2024-03-07T04:42:13;55.17;;;17.70;;
10659;SDS011;5378;53.206;13.316;2024-03-07T04:45:01;54.67;;;16.17;;
10659;SDS011;5378;53.206;13.316;2024-03-07T04:47:49;71.63;;;17.57;;
10659;SDS011;5378;53.206;13.316;2024-03-07T04:50:36;51.33;;;17.20;;
10659;SDS011;5378;53.206;13.316;2024-03-07T04:53:25;54.87;;;18.90;;
10659;SDS011;5378;53.206;13.316;2024-03-07T04:56:12;58.03;;;17.33;;
10659;SDS011;5378;53.206;13.316;2024-03-07T04:59:00;62.13;;;20.60;;
10659;SDS011;5378;53.206;13.316;2024-03-07T05:01:47;65.27;;;18.40;;
10659;SDS011;5378;53.206;13.316;2024-03-07T05:04:36;64.17;;;19.00;;
10659;SDS011;5378;53.206;13.316;2024-03-07T05:07:24;49.07;;;17.10;;
10659;SDS011;5378;53.206;13.316;2024-03-07T05:10:12;69.17;;;18.73;;
10659;SDS011;5378;53.206;13.316;2024-03-07T05:13:00;68.53;;;18.57;;
10659;SDS011;5378;53.206;13.316;2024-03-07T05:15:47;53.57;;;19.20;;
10659;SDS011;5378;53.206;13.316;2024-03-07T05:18:36;44.70;;;16.00;;
10659;SDS011;5378;53.206;13.316;2024-03-07T05:21:23;62.23;;;18.80;;
10659;SDS011;5378;53.206;13.316;2024-03-07T05:24:19;54.77;;;16.60;;
10659;SDS011;5378;53.206;13.316;2024-03-07T05:27:08;55.87;;;20.40;;
10659;SDS011;5378;53.206;13.316;2024-03-07T05:29:56;75.47;;;19.00;;
10659;SDS011;5378;53.206;13.316;2024-03-07T05:32:44;54.60;;;18.20;;
10659;SDS011;5378;53.206;13.316;2024-03-07T05:35:31;59.87;;;18.60;;
10659;SDS011;5378;53.206;13.316;2024-03-07T05:38:18;54.43;;;19.10;;
10659;SDS011;5378;53.206;13.316;2024-03-07T05:41:05;56.47;;;18.40;;
10659;SDS011;5378;53.206;13.316;2024-03-07T05:43:57;54.93;;;16.97;;
10659;SDS011;5378;53.206;13.316;2024-03-07T05:46:44;56.07;;;18.67;;
10659;SDS011;5378;53.206;13.316;2024-03-07T05:49:33;62.57;;;19.90;;
10659;SDS011;5378;53.206;13.316;2024-03-07T05:52:22;57.00;;;18.00;;
10659;SDS011;5378;53.206;13.316;2024-03-07T05:55:09;50.83;;;18.33;;
10659;SDS011;5378;53.206;13.316;2024-03-07T05:57:57;73.10;;;19.70;;
10659;SDS011;5378;53.206;13.316;2024-03-07T06:00:45;66.70;;;19.83;;
10659;SDS011;5378;53.206;13.316;2024-03-07T06:03:35;83.13;;;21.30;;
10659;SDS011;5378;53.206;13.316;2024-03-07T06:06:22;68.73;;;20.43;;
10659;SDS011;5378;53.206;13.316;2024-03-07T06:09:10;60.37;;;18.60;;
10659;SDS011;5378;53.206;13.316;2024-03-07T06:11:59;53.57;;;18.00;;
10659;SDS011;5378;53.206;13.316;2024-03-07T06:14:47;66.97;;;19.47;;
10659;SDS011;5378;53.206;13.316;2024-03-07T06:17:36;49.63;;;16.03;;
10659;SDS011;5378;53.206;13.316;2024-03-07T06:20:23;59.87;;;20.57;;
10659;SDS011;5378;53.206;13.316;2024-03-07T06:23:10;72.40;;;18.10;;
10659;SDS011;5378;53.206;13.316;2024-03-07T06:25:58;72.93;;;20.97;;
10659;SDS011;5378;53.206;13.316;2024-03-07T06:28:46;60.77;;;19.50;;
10659;SDS011;5378;53.206;13.316;2024-03-07T06:31:33;76.53;;;21.97;;
10659;SDS011;5378;53.206;13.316;2024-03-07T06:34:22;66.43;;;19.90;;
10659;SDS011;5378;53.206;13.316;2024-03-07T06:37:09;57.30;;;19.03;;
10659;SDS011;5378;53.206;13.316;2024-03-07T06:39:58;68.57;;;21.17;;
10659;SDS011;5378;53.206;13.316;2024-03-07T06:42:45;77.27;;;21.00;;
10659;SDS011;5378;53.206;13.316;2024-03-07T06:45:32;66.87;;;23.73;;
10659;SDS011;5378;53.206;13.316;2024-03-07T06:48:20;78.00;;;23.70;;
10659;SDS011;5378;53.206;13.316;2024-03-07T06:51:10;69.93;;;22.33;;
10659;SDS011;5378;53.206;13.316;2024-03-07T06:53:58;84.63;;;24.43;;
10659;SDS011;5378;53.206;13.316;2024-03-07T06:56:44;89.27;;;25.57;;
10659;SDS011;5378;53.206;13.316;2024-03-07T06:59:32;78.93;;;24.10;;
10659;SDS011;5378;53.206;13.316;2024-03-07T07:02:19;87.87;;;27.30;;
10659;SDS011;5378;53.206;13.316;2024-03-07T07:05:06;76.67;;;24.70;;
10659;SDS011;5378;53.206;13.316;2024-03-07T07:07:59;86.93;;;28.87;;
10659;SDS011;5378;53.206;13.316;2024-03-07T07:10:46;99.57;;;28.43;;
10659;SDS011;5378;53.206;13.316;2024-03-07T07:13:33;122.13;;;31.20;;
10659;SDS011;5378;53.206;13.316;2024-03-07T07:16:22;84.80;;;28.53;;
10659;SDS011;5378;53.206;13.316;2024-03-07T07:19:09;95.87;;;28.70;;
10659;SDS011;5378;53.206;13.316;2024-03-07T07:21:56;99.67;;;27.63;;
10659;SDS011;5378;53.206;13.316;2024-03-07T07:24:46;95.70;;;30.07;;
10659;SDS011;5378;53.206;13.316;2024-03-07T07:27:33;95.90;;;26.50;;
10659;SDS011;5378;53.206;13.316;2024-03-07T07:30:21;95.57;;;28.57;;
10659;SDS011;5378;53.206;13.316;2024-03-07T07:33:09;72.87;;;24.87;;
10659;SDS011;5378;53.206;13.316;2024-03-07T07:35:57;72.40;;;25.00;;
10659;SDS011;5378;53.206;13.316;2024-03-07T07:38:44;77.33;;;23.40;;
10659;SDS011;5378;53.206;13.316;2024-03-07T07:41:32;60.90;;;20.87;;
10659;SDS011;5378;53.206;13.316;2024-03-07T07:44:20;57.27;;;19.53;;
10659;SDS011;5378;53.206;13.316;2024-03-07T07:47:08;46.63;;;19.70;;
10659;SDS011;5378;53.206;13.316;2024-03-07T07:49:56;52.43;;;18.07;;
10659;SDS011;5378;53.206;13.316;2024-03-07T07:52:43;56.47;;;19.40;;
10659;SDS011;5378;53.206;13.316;2024-03-07T07:55:33;72.47;;;20.40;;
10659;SDS011;5378;53.206;13.316;2024-03-07T07:58:22;50.00;;;17.20;;
10659;SDS011;5378;53.206;13.316;2024-03-07T08:01:09;46.27;;;16.87;;
10659;SDS011;5378;53.206;13.316;2024-03-07T08:03:56;54.07;;;17.53;;
10659;SDS011;5378;53.206;13.316;2024-03-07T08:06:44;43.27;;;12.77;;
10659;SDS011;5378;53.206;13.316;2024-03-07T08:09:32;29.33;;;13.93;;
10659;SDS011;5378;53.206;13.316;2024-03-07T08:12:19;31.57;;;13.77;;
10659;SDS011;5378;53.206;13.316;2024-03-07T08:15:08;35.30;;;14.00;;
10659;SDS011;5378;53.206;13.316;2024-03-07T08:17:59;28.73;;;11.83;;
10659;SDS011;5378;53.206;13.316;2024-03-07T08:20:46;30.80;;;12.40;;
10659;SDS011;5378;53.206;13.316;2024-03-07T08:23:35;31.03;;;12.77;;
10659;SDS011;5378;53.206;13.316;2024-03-07T08:26:22;29.50;;;12.57;;
10659;SDS011;5378;53.206;13.316;2024-03-07T08:29:09;32.17;;;13.40;;
10659;SDS011;5378;53.206;13.316;2024-03-07T08:31:59;35.83;;;11.77;;
10659;SDS011;5378;53.206;13.316;2024-03-07T08:34:47;28.20;;;10.90;;
10659;SDS011;5378;53.206;13.316;2024-03-07T08:37:35;33.17;;;10.77;;
10659;SDS011;5378;53.206;13.316;2024-03-07T08:40:23;23.07;;;10.63;;
10659;SDS011;5378;53.206;13.316;2024-03-07T08:43:11;25.50;;;11.87;;
10659;SDS011;5378;53.206;13.316;2024-03-07T08:46:00;24.70;;;10.47;;
10659;SDS011;5378;53.206;13.316;2024-03-07T08:48:48;26.63;;;10.33;;
10659;SDS011;5378;53.206;13.316;2024-03-07T08:51:38;19.73;;;9.63;;
10659;SDS011;5378;53.206;13.316;2024-03-07T08:54:25;20.93;;;9.50;;
10659;SDS011;5378;53.206;13.316;2024-03-07T08:57:12;20.07;;;10.33;;
10659;SDS011;5378;53.206;13.316;2024-03-07T09:00:03;28.37;;;9.07;;
10659;SDS011;5378;53.206;13.316;2024-03-07T09:02:55;16.30;;;8.00;;
10659;SDS011;5378;53.206;13.316;2024-03-07T09:05:46;23.33;;;9.60;;
10659;SDS011;5378;53.206;13.316;2024-03-07T09:08:33;19.30;;;9.20;;
10659;SDS011;5378;53.206;13.316;2024-03-07T09:11:20;24.33;;;9.43;;
10659;SDS011;5378;53.206;13.316;2024-03-07T09:14:07;19.57;;;8.80;;
10659;SDS011;5378;53.206;13.316;2024-03-07T09:16:55;20.23;;;8.90;;
10659;SDS011;5378;53.206;13.316;2024-03-07T09:19:42;15.97;;;8.27;;
10659;SDS011;5378;53.206;13.316;2024-03-07T09:22:32;16.77;;;7.43;;
10659;SDS011;5378;53.206;13.316;2024-03-07T09:25:19;19.87;;;7.60;;
10659;SDS011;5378;53.206;13.316;2024-03-07T09:28:06;19.40;;;9.03;;
10659;SDS011;5378;53.206;13.316;2024-03-07T09:30:53;19.03;;;8.70;;
10659;SDS011;5378;53.206;13.316;2024-03-07T09:33:40;16.70;;;7.40;;
10659;SDS011;5378;53.206;13.316;2024-03-07T09:36:27;22.40;;;8.80;;
10659;SDS011;5378;53.206;13.316;2024-03-07T09:39:16;21.60;;;8.10;;
10659;SDS011;5378;53.206;13.316;2024-03-07T09:42:04;37.80;;;9.10;;
10659;SDS011;5378;53.206;13.316;2024-03-07T09:44:55;15.37;;;7.27;;
10659;SDS011;5378;53.206;13.316;2024-03-07T09:47:44;18.43;;;8.40;;
10659;SDS011;5378;53.206;13.316;2024-03-07T09:50:34;20.60;;;8.73;;
10659;SDS011;5378;53.206;13.316;2024-03-07T09:53:22;23.23;;;8.20;;
10659;SDS011;5378;53.206;13.316;2024-03-07T09:56:12;17.90;;;7.50;;
10659;SDS011;5378;53.206;13.316;2024-03-07T09:59:03;18.30;;;8.07;;
10659;SDS011;5378;53.206;13.316;2024-03-07T10:01:51;20.77;;;8.53;;
10659;SDS011;5378;53.206;13.316;2024-03-07T10:04:42;19.53;;;9.73;;
10659;SDS011;5378;53.206;13.316;2024-03-07T10:07:31;20.17;;;8.40;;
10659;SDS011;5378;53.206;13.316;2024-03-07T10:10:20;18.20;;;8.80;;
10659;SDS011;5378;53.206;13.316;2024-03-07T10:13:08;25.47;;;8.83;;
10659;SDS011;5378;53.206;13.316;2024-03-07T10:15:56;14.23;;;8.03;;
10659;SDS011;5378;53.206;13.316;2024-03-07T10:18:45;19.40;;;8.80;;
10659;SDS011;5378;53.206;13.316;2024-03-07T10:21:32;18.30;;;8.83;;
10659;SDS011;5378;53.206;13.316;2024-03-07T10:24:23;19.93;;;7.80;;
10659;SDS011;5378;53.206;13.316;2024-03-07T10:27:11;21.93;;;7.13;;
10659;SDS011;5378;53.206;13.316;2024-03-07T10:30:01;12.70;;;6.87;;
10659;SDS011;5378;53.206;13.316;2024-03-07T10:32:49;20.03;;;8.13;;
10659;SDS011;5378;53.206;13.316;2024-03-07T10:35:40;16.80;;;7.57;;
10659;SDS011;5378;53.206;13.316;2024-03-07T10:38:27;19.53;;;8.00;;
10659;SDS011;5378;53.206;13.316;2024-03-07T10:41:15;18.50;;;7.30;;
10659;SDS011;5378;53.206;13.316;2024-03-07T10:44:02;17.20;;;7.83;;
10659;SDS011;5378;53.206;13.316;2024-03-07T10:46:54;17.73;;;8.47;;
10659;SDS011;5378;53.206;13.316;2024-03-07T10:49:53;22.03;;;8.40;;
10659;SDS011;5378;53.206;13.316;2024-03-07T10:52:48;17.90;;;7.50;;
10659;SDS011;5378;53.206;13.316;2024-03-07T10:55:44;14.87;;;7.33;;
10659;SDS011;5378;53.206;13.316;2024-03-07T10:58:42;13.37;;;6.60;;
10659;SDS011;5378;53.206;13.316;2024-03-07T11:01:35;16.10;;;7.03;;
10659;SDS011;5378;53.206;13.316;2024-03-07T11:04:30;25.70;;;7.80;;
10659;SDS011;5378;53.206;13.316;2024-03-07T11:07:20;14.70;;;7.27;;
10659;SDS011;5378;53.206;13.316;2024-03-07T11:10:09;14.70;;;7.20;;
10659;SDS011;5378;53.206;13.316;2024-03-07T11:12:58;16.03;;;7.50;;
10659;SDS011;5378;53.206;13.316;2024-03-07T11:15:46;15.23;;;6.97;;
10659;SDS011;5378;53.206;13.316;2024-03-07T11:18:37;16.07;;;7.80;;
10659;SDS011;5378;53.206;13.316;2024-03-07T11:21:41;15.23;;;7.73;;
10659;SDS011;5378;53.206;13.316;2024-03-07T11:24:29;20.27;;;8.60;;
10659;SDS011;5378;53.206;13.316;2024-03-07T11:27:18;21.53;;;8.43;;
10659;SDS011;5378;53.206;13.316;2024-03-07T11:30:06;21.13;;;9.10;;
10659;SDS011;5378;53.206;13.316;2024-03-07T11:32:54;29.73;;;10.47;;
10659;SDS011;5378;53.206;13.316;2024-03-07T11:35:48;17.60;;;7.87;;
10659;SDS011;5378;53.206;13.316;2024-03-07T11:38:37;22.40;;;8.53;;
10659;SDS011;5378;53.206;13.316;2024-03-07T11:41:24;16.07;;;7.30;;
10659;SDS011;5378;53.206;13.316;2024-03-07T11:44:11;22.17;;;9.70;;
10659;SDS011;5378;53.206;13.316;2024-03-07T11:46:59;16.53;;;8.13;;
10659;SDS011;5378;53.206;13.316;2024-03-07T11:49:53;17.27;;;8.40;;
10659;SDS011;5378;53.206;13.316;2024-03-07T11:52:43;15.67;;;7.93;;
10659;SDS011;5378;53.206;13.316;2024-03-07T11:55:33;16.53;;;8.60;;
10659;SDS011;5378;53.206;13.316;2024-03-07T11:58:27;23.70;;;8.83;;
10659;SDS011;5378;53.206;13.316;2024-03-07T12:01:17;20.10;;;8.00;;
10659;SDS011;5378;53.206;13.316;2024-03-07T12:04:05;18.70;;;8.37;;
10659;SDS011;5378;53.206;13.316;2024-03-07T12:06:52;18.70;;;7.57;;
10659;SDS011;5378;53.206;13.316;2024-03-07T12:09:40;20.03;;;9.33;;
10659;SDS011;5378;53.206;13.316;2024-03-07T12:12:32;18.20;;;7.80;;
10659;SDS011;5378;53.206;13.316;2024-03-07T12:15:20;24.17;;;9.40;;
10659;SDS011;5378;53.206;13.316;2024-03-07T12:18:07;18.43;;;7.90;;
10659;SDS011;5378;53.206;13.316;2024-03-07T12:20:55;17.70;;;7.47;;
10659;SDS011;5378;53.206;13.316;2024-03-07T12:23:43;16.60;;;7.53;;
10659;SDS011;5378;53.206;13.316;2024-03-07T12:26:32;19.50;;;7.43;;
10659;SDS011;5378;53.206;13.316;2024-03-07T12:29:25;19.90;;;7.30;;
10659;SDS011;5378;53.206;13.316;2024-03-07T12:32:12;23.37;;;9.10;;
10659;SDS011;5378;53.206;13.316;2024-03-07T12:35:00;22.77;;;8.90;;
10659;SDS011;5378;53.206;13.316;2024-03-07T12:37:50;17.40;;;8.13;;
10659;SDS011;5378;53.206;13.316;2024-03-07T12:40:39;13.20;;;7.20;;
10659;SDS011;5378;53.206;13.316;2024-03-07T12:43:27;15.40;;;7.57;;
10659;SDS011;5378;53.206;13.316;2024-03-07T12:46:16;17.37;;;8.30;;
10659;SDS011;5378;53.206;13.316;2024-03-07T12:49:04;18.73;;;8.97;;
10659;SDS011;5378;53.206;13.316;2024-03-07T12:51:51;19.03;;;8.20;;
10659;SDS011;5378;53.206;13.316;2024-03-07T12:54:39;24.33;;;7.77;;
10659;SDS011;5378;53.206;13.316;2024-03-07T12:57:27;16.53;;;6.93;;
10659;SDS011;5378;53.206;13.316;2024-03-07T13:00:14;18.67;;;7.63;;
10659;SDS011;5378;53.206;13.316;2024-03-07T13:03:05;16.63;;;7.47;;
10659;SDS011;5378;53.206;13.316;2024-03-07T13:05:53;21.17;;;8.73;;
10659;SDS011;5378;53.206;13.316;2024-03-07T13:08:40;16.63;;;8.17;;
10659;SDS011;5378;53.206;13.316;2024-03-07T13:11:28;14.33;;;7.40;;
10659;SDS011;5378;53.206;13.316;2024-03-07T13:14:17;24.20;;;8.53;;
10659;SDS011;5378;53.206;13.316;2024-03-07T13:17:04;14.87;;;7.07;;
10659;SDS011;5378;53.206;13.316;2024-03-07T13:19:53;13.13;;;7.10;;
10659;SDS011;5378;53.206;13.316;2024-03-07T13:22:45;18.90;;;7.53;;
10659;SDS011;5378;53.206;13.316;2024-03-07T13:25:33;15.60;;;7.60;;
10659;SDS011;5378;53.206;13.316;2024-03-07T13:28:20;15.40;;;7.43;;
10659;SDS011;5378;53.206;13.316;2024-03-07T13:31:10;16.90;;;8.07;;
10659;SDS011;5378;53.206;13.316;2024-03-07T13:33:58;13.80;;;6.90;;
10659;SDS011;5378;53.206;13.316;2024-03-07T13:36:48;14.43;;;6.70;;
10659;SDS011;5378;53.206;13.316;2024-03-07T13:39:35;16.40;;;7.00;;
10659;SDS011;5378;53.206;13.316;2024-03-07T13:42:22;16.40;;;7.17;;
10659;SDS011;5378;53.206;13.316;2024-03-07T13:45:09;15.47;;;8.00;;
10659;SDS011;5378;53.206;13.316;2024-03-07T13:47:58;15.50;;;7.40;;
10659;SDS011;5378;53.206;13.316;2024-03-07T13:50:46;20.83;;;8.57;;
10659;SDS011;5378;53.206;13.316;2024-03-07T13:53:36;14.50;;;7.60;;
10659;SDS011;5378;53.206;13.316;2024-03-07T13:56:34;12.63;;;6.60;;
10659;SDS011;5378;53.206;13.316;2024-03-07T14:03:22;16.67;;;8.53;;
10659;SDS011;5378;53.206;13.316;2024-03-07T14:06:37;20.23;;;8.60;;
10659;SDS011;5378;53.206;13.316;2024-03-07T14:09:41;17.90;;;7.50;;
10659;SDS011;5378;53.206;13.316;2024-03-07T14:12:41;20.90;;;8.80;;
10659;SDS011;5378;53.206;13.316;2024-03-07T14:19:24;16.50;;;8.43;;
10659;SDS011;5378;53.206;13.316;2024-03-07T14:22:39;21.47;;;10.00;;
10659;SDS011;5378;53.206;13.316;2024-03-07T14:25:48;20.17;;;8.37;;
10659;SDS011;5378;53.206;13.316;2024-03-07T14:28:52;20.43;;;8.93;;
10659;SDS011;5378;53.206;13.316;2024-03-07T14:31:51;16.63;;;8.00;;
10659;SDS011;5378;53.206;13.316;2024-03-07T14:34:45;17.97;;;9.27;;
10659;SDS011;5378;53.206;13.316;2024-03-07T14:37:37;19.80;;;8.87;;
10659;SDS011;5378;53.206;13.316;2024-03-07T14:40:31;30.67;;;9.87;;
10659;SDS011;5378;53.206;13.316;2024-03-07T14:43:20;22.20;;;9.20;;
10659;SDS011;5378;53.206;13.316;2024-03-07T14:46:08;23.10;;;10.30;;
10659;SDS011;5378;53.206;13.316;2024-03-07T14:48:58;23.77;;;10.00;;
10659;SDS011;5378;53.206;13.316;2024-03-07T14:51:45;17.83;;;9.63;;
10659;SDS011;5378;53.206;13.316;2024-03-07T14:54:36;24.83;;;8.97;;
10659;SDS011;5378;53.206;13.316;2024-03-07T14:57:24;24.27;;;9.00;;
10659;SDS011;5378;53.206;13.316;2024-03-07T15:00:13;24.23;;;10.10;;
10659;SDS011;5378;53.206;13.316;2024-03-07T15:03:07;18.33;;;7.67;;
10659;SDS011;5378;53.206;13.316;2024-03-07T15:05:56;21.77;;;9.37;;
10659;SDS011;5378;53.206;13.316;2024-03-07T15:08:44;16.43;;;8.10;;
10659;SDS011;5378;53.206;13.316;2024-03-07T15:11:33;19.53;;;9.10;;
10659;SDS011;5378;53.206;13.316;2024-03-07T15:14:22;21.90;;;7.53;;
10659;SDS011;5378;53.206;13.316;2024-03-07T15:17:12;23.90;;;8.30;;
10659;SDS011;5378;53.206;13.316;2024-03-07T15:19:59;15.23;;;7.90;;
10659;SDS011;5378;53.206;13.316;2024-03-07T15:22:45;19.50;;;7.87;;
10659;SDS011;5378;53.206;13.316;2024-03-07T15:25:32;17.87;;;7.50;;
10659;SDS011;5378;53.206;13.316;2024-03-07T15:28:22;22.03;;;7.13;;
10659;SDS011;5378;53.206;13.316;2024-03-07T15:31:10;14.20;;;7.50;;
10659;SDS011;5378;53.206;13.316;2024-03-07T15:34:05;15.17;;;7.53;;
10659;SDS011;5378;53.206;13.316;2024-03-07T15:36:58;21.43;;;8.93;;
10659;SDS011;5378;53.206;13.316;2024-03-07T15:39:47;18.20;;;7.77;;
10659;SDS011;5378;53.206;13.316;2024-03-07T15:42:34;21.00;;;8.33;;
10659;SDS011;5378;53.206;13.316;2024-03-07T15:45:22;23.53;;;8.70;;
10659;SDS011;5378;53.206;13.316;2024-03-07T15:48:11;15.80;;;7.93;;
10659;SDS011;5378;53.206;13.316;2024-03-07T15:51:01;15.50;;;7.33;;
10659;SDS011;5378;53.206;13.316;2024-03-07T15:53:49;14.60;;;7.27;;
10659;SDS011;5378;53.206;13.316;2024-03-07T15:56:36;14.00;;;6.70;;
10659;SDS011;5378;53.206;13.316;2024-03-07T15:59:23;18.47;;;7.20;;
10659;SDS011;5378;53.206;13.316;2024-03-07T16:02:10;11.77;;;6.70;;
10659;SDS011;5378;53.206;13.316;2024-03-07T16:04:59;20.47;;;8.33;;
10659;SDS011;5378;53.206;13.316;2024-03-07T16:07:48;20.63;;;8.07;;
10659;SDS011;5378;53.206;13.316;2024-03-07T16:10:36;24.73;;;8.73;;
10659;SDS011;5378;53.206;13.316;2024-03-07T16:13:25;21.80;;;8.87;;
10659;SDS011;5378;53.206;13.316;2024-03-07T16:16:13;22.07;;;8.43;;
10659;SDS011;5378;53.206;13.316;2024-03-07T16:19:00;17.27;;;9.07;;
10659;SDS011;5378;53.206;13.316;2024-03-07T16:21:50;20.03;;;10.53;;
10659;SDS011;5378;53.206;13.316;2024-03-07T16:24:39;21.00;;;9.30;;
10659;SDS011;5378;53.206;13.316;2024-03-07T16:27:27;16.33;;;7.67;;
10659;SDS011;5378;53.206;13.316;2024-03-07T16:30:15;16.73;;;6.43;;
10659;SDS011;5378;53.206;13.316;2024-03-07T16:33:04;15.03;;;7.10;;
10659;SDS011;5378;53.206;13.316;2024-03-07T16:35:52;18.30;;;7.43;;
10659;SDS011;5378;53.206;13.316;2024-03-07T16:38:39;18.03;;;7.70;;
10659;SDS011;5378;53.206;13.316;2024-03-07T16:41:27;19.70;;;7.43;;
10659;SDS011;5378;53.206;13.316;2024-03-07T16:44:14;12.10;;;7.00;;